Time;durP1;ratioP1;P1;durP2;ratioP2;P2;SDS_P1;SDS_P2;PMS_P1;PMS_P2;Temp;Humidity;BMP_temperature;BMP_pressure;BME280_temperature;BME280_humidity;BME280_pressure;Samples;Min_cycle;Max_cycle;Signal;HPM_P1;HPM_P2
2022/04/13 00:00:16;21973.00;0.07;38.69;0.00;0.00;0.62;;;;;17.10;1.00;;;;;;2288386;60;1003;-87
2022/04/13 00:02:45;54557.00;0.18;95.07;0.00;0.00;0.62;;;;;17.10;1.00;;;;;;2288369;60;1505;-87
2022/04/13 00:05:12;84430.00;0.28;146.69;0.00;0.00;0.62;;;;;17.20;1.00;;;;;;2288287;60;1658;-86
2022/04/13 00:07:39;59177.00;0.20;103.05;0.00;0.00;0.62;;;;;17.20;1.00;;;;;;2289062;60;1617;-88
2022/04/13 00:10:08;48466.00;0.16;84.53;0.00;0.00;0.62;;;;;17.30;1.00;;;;;;2289007;60;1095;-88
2022/04/13 00:12:35;342574.00;1.14;591.10;100636.00;0.34;174.67;;;;;17.10;1.00;;;;;;2289051;60;1598;-87
2022/04/13 00:15:02;0.00;0.00;0.62;0.00;0.00;0.62;;;;;17.40;1.00;;;;;;2289020;60;1905;-86
2022/04/13 00:17:29;223206.00;0.74;385.86;0.00;0.00;0.62;;;;;17.30;1.00;;;;;;2289081;60;1276;-86
2022/04/13 00:20:01;21242.00;0.07;37.42;0.00;0.00;0.62;;;;;17.30;1.00;;;;;;2288968;60;1006;-87
2022/04/13 00:22:28;108279.00;0.36;187.86;0.00;0.00;0.62;;;;;17.30;1.00;;;;;;2289119;60;905;-89
2022/04/13 00:24:55;227964.00;0.76;394.05;0.00;0.00;0.62;;;;;17.20;1.00;;;;;;2288989;60;1380;-87
2022/04/13 00:27:22;156470.00;0.52;270.96;0.00;0.00;0.62;;;;;17.30;1.00;;;;;;2289096;60;1005;-86
2022/04/13 00:29:48;55043.00;0.18;95.91;0.00;0.00;0.62;;;;;17.30;1.00;;;;;;2288992;60;1344;-87
2022/04/13 00:32:16;199925.00;0.67;345.79;14694.00;0.05;26.08;;;;;17.20;1.00;;;;;;2288930;60;1026;-87
2022/04/13 00:34:42;201309.00;0.67;348.18;0.00;0.00;0.62;;;;;17.20;1.00;;;;;;2289045;60;1004;-87
2022/04/13 00:37:11;10688.00;0.04;19.14;0.00;0.00;0.62;;;;;17.10;1.00;;;;;;2288990;60;1951;-87
2022/04/13 00:39:38;34238.00;0.11;59.92;0.00;0.00;0.62;;;;;17.00;1.00;;;;;;2289021;60;2179;-88
2022/04/13 00:42:07;230022.00;0.77;397.59;0.00;0.00;0.62;;;;;16.90;1.00;;;;;;2288923;60;1789;-87
2022/04/13 00:44:35;72192.00;0.24;125.55;0.00;0.00;0.62;;;;;16.90;1.00;;;;;;2288928;60;938;-87
2022/04/13 00:47:07;35041.00;0.12;61.31;0.00;0.00;0.62;;;;;17.10;1.00;;;;;;2288982;60;1048;-88
2022/04/13 00:49:35;89424.00;0.30;155.31;0.00;0.00;0.62;;;;;17.10;1.00;;;;;;2288666;60;1444;-88
2022/04/13 00:52:04;79876.00;0.27;138.82;0.00;0.00;0.62;;;;;17.20;1.00;;;;;;2289017;60;1024;-87
2022/04/13 00:54:33;14188.00;0.05;25.20;0.00;0.00;0.62;;;;;17.30;1.00;;;;;;2288841;60;1129;-86
2022/04/13 00:57:07;46810.00;0.16;81.67;0.00;0.00;0.62;;;;;17.20;1.00;;;;;;2288817;60;2037;-87
2022/04/13 00:59:38;98041.00;0.33;170.19;0.00;0.00;0.62;;;;;17.30;1.00;;;;;;2288888;60;1333;-88
2022/04/13 01:02:07;172145.00;0.57;297.96;0.00;0.00;0.62;;;;;17.30;1.00;;;;;;2288887;60;915;-88
2022/04/13 01:04:36;100665.00;0.34;174.72;0.00;0.00;0.62;;;;;17.10;1.00;;;;;;2288857;60;1094;-89
2022/04/13 01:07:07;34383.00;0.11;60.17;0.00;0.00;0.62;;;;;17.00;1.00;;;;;;2288902;60;1236;-86
2022/04/13 01:09:36;32421.00;0.11;56.77;0.00;0.00;0.62;;;;;17.00;1.00;;;;;;2288890;60;1295;-88
2022/04/13 01:12:05;86828.00;0.29;150.83;0.00;0.00;0.62;;;;;17.10;1.00;;;;;;2288836;60;1054;-86
2022/04/13 01:14:32;93724.00;0.31;162.74;0.00;0.00;0.62;;;;;17.00;1.00;;;;;;2288909;60;1520;-87
2022/04/13 01:17:00;205451.00;0.68;355.31;42161.00;0.14;73.63;;;;;16.90;1.00;;;;;;2290679;55;3577;-87
2022/04/13 01:19:28;282214.00;0.94;487.34;68939.00;0.23;119.93;;;;;16.90;1.00;;;;;;2295038;55;3804;-87
2022/04/13 01:21:58;144637.00;0.48;250.56;15162.00;0.05;26.89;;;;;17.00;1.00;;;;;;2292695;60;975;-88
2022/04/13 01:24:29;78859.00;0.26;137.07;0.00;0.00;0.62;;;;;16.70;1.00;;;;;;2293017;60;1044;-87
2022/04/13 01:26:56;0.00;0.00;0.62;0.00;0.00;0.62;;;;;16.70;1.00;;;;;;2292955;60;956;-88
2022/04/13 01:29:23;221951.00;0.74;383.70;27948.00;0.09;49.03;;;;;16.60;1.00;;;;;;2292929;60;1553;-88
2022/04/13 01:31:53;170342.00;0.57;294.86;31973.00;0.11;56.00;;;;;16.70;1.00;;;;;;2293068;60;925;-87
2022/04/13 01:34:20;25026.00;0.08;43.97;0.00;0.00;0.62;;;;;16.70;1.00;;;;;;2292976;60;1113;-88
2022/04/13 01:36:47;75111.00;0.25;130.59;0.00;0.00;0.62;;;;;16.70;1.00;;;;;;2292816;60;1907;-88
2022/04/13 01:39:14;66393.00;0.22;115.53;0.00;0.00;0.62;;;;;16.80;1.00;;;;;;2292841;60;1682;-89
2022/04/13 01:41:43;172846.00;0.58;299.17;0.00;0.00;0.62;;;;;17.00;1.00;;;;;;2293006;60;1020;-87
2022/04/13 01:44:10;0.00;0.00;0.62;0.00;0.00;0.62;;;;;17.10;1.00;;;;;;2292917;60;1045;-87
2022/04/13 01:46:37;4254.00;0.01;7.99;0.00;0.00;0.62;;;;;16.90;1.00;;;;;;2292823;60;1006;-87
2022/04/13 01:49:04;14519.00;0.05;25.78;0.00;0.00;0.62;;;;;16.70;1.00;;;;;;2292838;60;1395;-88
2022/04/13 01:51:31;69692.00;0.23;121.23;0.00;0.00;0.62;;;;;16.70;1.00;;;;;;2292822;60;1754;-87
2022/04/13 01:53:58;86076.00;0.29;149.53;0.00;0.00;0.62;;;;;16.70;1.00;;;;;;2292815;60;1011;-88
2022/04/13 01:56:25;22011.00;0.07;38.75;0.00;0.00;0.62;;;;;16.70;1.00;;;;;;2292908;60;1990;-86
2022/04/13 01:58:54;31986.00;0.11;56.02;0.00;0.00;0.62;;;;;16.40;1.00;;;;;;2292842;60;1378;-87
2022/04/13 02:01:21;134595.00;0.45;233.25;0.00;0.00;0.62;;;;;16.50;1.00;;;;;;2292693;60;1524;-88
2022/04/13 02:03:49;138320.00;0.46;239.67;41467.00;0.14;72.43;;;;;16.10;1.00;;;;;;2292833;60;937;-88
2022/04/13 02:06:16;43574.00;0.15;76.07;0.00;0.00;0.62;;;;;16.20;1.00;;;;;;2292844;60;1737;-88
2022/04/13 02:08:43;145203.00;0.48;251.54;0.00;0.00;0.62;;;;;16.30;1.00;;;;;;2292678;60;1434;-87
2022/04/13 02:11:10;88184.00;0.29;153.17;0.00;0.00;0.62;;;;;16.50;1.00;;;;;;2292858;60;1672;-89
2022/04/13 02:13:39;58705.00;0.20;102.24;0.00;0.00;0.62;;;;;16.80;1.00;;;;;;2292712;60;1399;-86
2022/04/13 02:16:08;27813.00;0.09;48.80;0.00;0.00;0.62;;;;;16.80;1.00;;;;;;2292673;60;1911;-88
2022/04/13 02:18:35;28216.00;0.09;49.50;0.00;0.00;0.62;;;;;16.60;1.00;;;;;;2292574;60;1409;-87
2022/04/13 02:21:02;223078.00;0.74;385.64;0.00;0.00;0.62;;;;;16.60;1.00;;;;;;2292715;60;1649;-86
2022/04/13 02:23:29;168423.00;0.56;291.55;0.00;0.00;0.62;;;;;16.60;1.00;;;;;;2292670;60;1167;-88
2022/04/13 02:25:56;327337.00;1.09;564.91;35568.00;0.12;62.22;;;;;16.50;1.00;;;;;;2292715;60;1002;-88
2022/04/13 02:28:23;115257.00;0.38;199.90;0.00;0.00;0.62;;;;;16.60;1.00;;;;;;2292652;60;1276;-88
2022/04/13 02:30:50;76522.00;0.26;133.03;0.00;0.00;0.62;;;;;16.40;1.00;;;;;;2292830;60;1005;-86
2022/04/13 02:33:20;55591.00;0.19;96.85;0.00;0.00;0.62;;;;;16.60;1.00;;;;;;2292667;60;987;-87
2022/04/13 02:35:47;39411.00;0.13;68.87;0.00;0.00;0.62;;;;;16.80;1.00;;;;;;2292718;60;1929;-88
2022/04/13 02:38:14;167601.00;0.56;290.13;0.00;0.00;0.62;;;;;17.00;1.00;;;;;;2292697;60;1362;-88
2022/04/13 02:40:41;125345.00;0.42;217.30;0.00;0.00;0.62;;;;;17.00;1.00;;;;;;2292649;60;1508;-87
2022/04/13 02:43:08;90567.00;0.30;157.29;0.00;0.00;0.62;;;;;16.70;1.00;;;;;;2292732;60;1281;-86
2022/04/13 02:45:35;62034.00;0.21;107.99;0.00;0.00;0.62;;;;;16.50;1.00;;;;;;2292615;60;1269;-88
2022/04/13 02:48:02;312005.00;1.04;538.56;69384.00;0.23;120.70;;;;;16.20;1.00;;;;;;2292721;60;1342;-85
2022/04/13 02:50:30;369911.00;1.23;638.08;38284.00;0.13;66.92;;;;;16.20;1.00;;;;;;2292500;60;1713;-87
2022/04/13 02:52:57;70008.00;0.23;121.77;0.00;0.00;0.62;;;;;16.50;1.00;;;;;;2292701;60;1583;-89
2022/04/13 02:55:24;68771.00;0.23;119.64;0.00;0.00;0.62;;;;;16.70;1.00;;;;;;2292631;60;1739;-87
2022/04/13 02:57:52;188802.00;0.63;326.65;0.00;0.00;0.62;;;;;16.60;1.00;;;;;;2292536;60;2015;-85
2022/04/13 03:00:19;62344.00;0.21;108.53;0.00;0.00;0.62;;;;;16.40;1.00;;;;;;2292589;60;1544;-89
2022/04/13 03:02:46;78377.00;0.26;136.23;0.00;0.00;0.62;;;;;16.20;1.00;;;;;;2292630;60;998;-87
2022/04/13 03:05:13;150887.00;0.50;261.34;0.00;0.00;0.62;;;;;16.30;1.00;;;;;;2292583;60;1045;-88
2022/04/13 03:07:42;142647.00;0.48;247.13;0.00;0.00;0.62;;;;;16.40;1.00;;;;;;2292602;60;1275;-89
2022/04/13 03:10:09;2127.00;0.01;4.31;0.00;0.00;0.62;;;;;16.20;1.00;;;;;;2292667;60;912;-89
2022/04/13 03:12:37;21498.00;0.07;37.86;0.00;0.00;0.62;;;;;16.10;1.00;;;;;;2292593;60;986;-88
2022/04/13 03:15:06;410363.00;1.37;707.62;49364.00;0.16;86.09;;;;;15.70;1.00;;;;;;2292712;60;995;-88
2022/04/13 03:17:33;286210.00;0.95;494.21;0.00;0.00;0.62;;;;;15.60;1.00;;;;;;2292442;60;1935;-86
2022/04/13 03:20:00;7995.00;0.03;14.48;0.00;0.00;0.62;;;;;15.30;1.00;;;;;;2292613;60;998;-89
2022/04/13 03:22:27;354151.00;1.18;611.00;32636.00;0.11;57.15;;;;;15.20;1.00;;;;;;2292566;60;1746;-89
2022/04/13 03:24:56;162198.00;0.54;280.83;0.00;0.00;0.62;;;;;15.30;1.00;;;;;;2292478;60;1057;-89
2022/04/13 03:27:23;62200.00;0.21;108.28;0.00;0.00;0.62;;;;;15.40;1.00;;;;;;2292480;60;1678;-87
2022/04/13 03:29:50;205436.00;0.68;355.28;0.00;0.00;0.62;;;;;15.40;1.00;;;;;;2292530;60;1635;-88
2022/04/13 03:32:16;95582.00;0.32;165.95;0.00;0.00;0.62;;;;;15.40;1.00;;;;;;2292534;60;1046;-87
2022/04/13 03:34:43;202187.00;0.67;349.69;0.00;0.00;0.62;;;;;15.40;1.00;;;;;;2292494;60;1654;-87
2022/04/13 03:37:10;121379.00;0.40;210.46;0.00;0.00;0.62;;;;;15.40;1.00;;;;;;2292511;60;2013;-89
2022/04/13 03:39:37;164768.00;0.55;285.25;0.00;0.00;0.62;;;;;15.50;1.00;;;;;;2292902;60;1296;-90
2022/04/13 03:42:07;59445.00;0.20;103.52;0.00;0.00;0.62;;;;;15.50;1.00;;;;;;2293335;60;1081;-87
2022/04/13 03:44:34;98470.00;0.33;170.93;0.00;0.00;0.62;;;;;15.30;1.00;;;;;;2293320;60;1154;-89
2022/04/13 03:47:01;60352.00;0.20;105.09;0.00;0.00;0.62;;;;;15.30;1.00;;;;;;2293268;60;1032;-88
2022/04/13 03:49:28;43901.00;0.15;76.64;0.00;0.00;0.62;;;;;15.30;1.00;;;;;;2293250;60;1398;-88
2022/04/13 03:51:55;8140.00;0.03;14.73;0.00;0.00;0.62;;;;;15.30;1.00;;;;;;2293105;60;1151;-89
2022/04/13 03:54:22;117086872.00;390.29;65020468.00;0.00;0.00;0.62;;;;;15.20;1.00;;;;;;2293086;60;990;-90
2022/04/13 03:56:49;205947.00;0.69;356.16;31327.00;0.10;54.88;;;;;15.10;1.00;;;;;;2293189;60;1982;-88
2022/04/13 03:59:20;92363.00;0.31;160.39;0.00;0.00;0.62;;;;;15.00;1.00;;;;;;2293118;60;1295;-89
2022/04/13 04:01:47;129917.00;0.43;225.19;0.00;0.00;0.62;;;;;15.10;1.00;;;;;;2293271;60;1025;-88
2022/04/13 04:04:14;46807.00;0.16;81.66;0.00;0.00;0.62;;;;;15.20;1.00;;;;;;2293170;60;925;-89
2022/04/13 04:06:41;182899.00;0.61;316.48;50326.00;0.17;87.75;;;;;15.50;1.00;;;;;;2293011;60;1109;-89
2022/04/13 04:09:08;334401.00;1.11;577.05;27279.00;0.09;47.87;;;;;15.60;1.00;;;;;;2293146;60;1369;-89
2022/04/13 04:11:35;133167.00;0.44;230.79;0.00;0.00;0.62;;;;;15.40;1.00;;;;;;2293137;60;935;-88
2022/04/13 04:14:02;305346.00;1.02;527.11;91699.00;0.31;159.24;;;;;15.80;1.00;;;;;;2293151;60;997;-86
2022/04/13 04:16:31;43371.00;0.14;75.72;0.00;0.00;0.62;;;;;16.30;1.00;;;;;;2293160;60;2020;-89
2022/04/13 04:19:00;261340.00;0.87;451.45;0.00;0.00;0.62;;;;;16.30;1.00;;;;;;2292940;60;1359;-88
2022/04/13 04:21:26;159757.00;0.53;276.62;0.00;0.00;0.62;;;;;16.50;1.00;;;;;;2293159;60;1380;-87
2022/04/13 04:23:54;26927.00;0.09;47.26;0.00;0.00;0.62;;;;;16.20;1.00;;;;;;2296926;55;3763;-88
2022/04/13 04:26:21;122071.00;0.41;211.65;49575.00;0.17;86.45;;;;;16.00;1.00;;;;;;2288990;60;1737;-87
2022/04/13 04:28:48;20860.00;0.07;36.76;0.00;0.00;0.62;;;;;15.80;1.00;;;;;;2288982;60;1404;-89
2022/04/13 04:31:19;425954.00;1.42;734.43;105825.00;0.35;183.63;;;;;15.90;1.00;;;;;;2289052;60;958;-88
2022/04/13 04:33:47;200372.00;0.67;346.56;0.00;0.00;0.62;;;;;15.80;1.00;;;;;;2288878;60;1286;-88
2022/04/13 04:36:14;115471.00;0.38;200.27;0.00;0.00;0.62;;;;;15.50;1.00;;;;;;2288861;60;2008;-90
2022/04/13 04:38:41;0.00;0.00;0.62;0.00;0.00;0.62;;;;;15.80;1.00;;;;;;2288855;60;1238;-91
2022/04/13 04:41:08;75213.00;0.25;130.77;0.00;0.00;0.62;;;;;15.80;1.00;;;;;;2288945;60;1733;-89
2022/04/13 04:43:37;31238.00;0.10;54.73;0.00;0.00;0.62;;;;;15.50;1.00;;;;;;2288846;60;1116;-88
2022/04/13 04:46:04;79974.00;0.27;138.99;0.00;0.00;0.62;;;;;15.30;1.00;;;;;;2288971;60;1540;-90
2022/04/13 04:48:31;68149.00;0.23;118.56;0.00;0.00;0.62;;;;;15.30;1.00;;;;;;2288773;60;1681;-89
2022/04/13 04:50:59;32095.00;0.11;56.21;0.00;0.00;0.62;;;;;15.10;1.00;;;;;;2288738;60;1007;-87
2022/04/13 04:53:26;38365.00;0.13;67.06;0.00;0.00;0.62;;;;;15.30;1.00;;;;;;2288887;60;963;-88
2022/04/13 04:55:53;33061.00;0.11;57.88;0.00;0.00;0.62;;;;;15.60;1.00;;;;;;2288996;60;897;-88
2022/04/13 04:58:20;20230.00;0.07;35.67;0.00;0.00;0.62;;;;;15.90;1.00;;;;;;2288848;60;2022;-88
2022/04/13 05:03:15;384794.00;1.28;663.67;0.00;0.00;0.62;;;;;15.80;1.00;;;;;;2290841;60;1404;-88
2022/04/13 05:05:42;62685.00;0.21;109.12;0.00;0.00;0.62;;;;;15.50;1.00;;;;;;2288757;60;1444;-88
2022/04/13 05:08:10;123397.00;0.41;213.94;0.00;0.00;0.62;;;;;15.50;1.00;;;;;;2288826;60;1280;-87
2022/04/13 05:10:38;66699.00;0.22;116.06;0.00;0.00;0.62;;;;;15.60;1.00;;;;;;2288864;60;1491;-87
2022/04/13 05:13:06;228926.00;0.76;395.70;0.00;0.00;0.62;;;;;15.60;1.00;;;;;;2288676;60;1620;-87
2022/04/13 05:15:33;32989.00;0.11;57.76;0.00;0.00;0.62;;;;;15.50;1.00;;;;;;2288898;60;1117;-88
2022/04/13 05:18:00;259195.00;0.86;447.76;31792.00;0.11;55.68;;;;;15.40;1.00;;;;;;2288778;60;2010;-88
2022/04/13 05:20:27;234761.00;0.78;405.74;43243.00;0.14;75.50;;;;;15.50;1.00;;;;;;2288814;60;931;-88
2022/04/13 05:22:56;108532.00;0.36;188.30;0.00;0.00;0.62;;;;;15.60;1.00;;;;;;2288878;60;995;-89
2022/04/13 05:25:25;11981.00;0.04;21.38;0.00;0.00;0.62;;;;;16.00;1.00;;;;;;2288738;60;1721;-86
2022/04/13 05:27:51;59472.00;0.20;103.56;0.00;0.00;0.62;;;;;16.30;1.00;;;;;;2288593;60;1384;-86
2022/04/13 05:30:18;182024.00;0.61;314.98;43339.00;0.14;75.66;;;;;15.90;1.00;;;;;;2288806;60;1097;-87
2022/04/13 05:32:56;28280.00;0.09;49.61;0.00;0.00;0.62;;;;;16.10;1.00;;;;;;2288689;60;1086;-87
2022/04/13 05:35:24;67536.00;0.23;117.50;0.00;0.00;0.62;;;;;16.60;1.00;;;;;;2288781;60;1520;-87
2022/04/13 05:37:51;13148.00;0.04;23.40;0.00;0.00;0.62;;;;;17.20;1.00;;;;;;2288769;60;1919;-87
2022/04/13 05:40:19;24074.00;0.08;42.32;0.00;0.00;0.62;;;;;17.50;1.00;;;;;;2288798;60;1539;-87
2022/04/13 05:42:47;123599.00;0.41;214.29;0.00;0.00;0.62;;;;;17.70;1.00;;;;;;2288747;60;911;-86
2022/04/13 05:45:14;13938.00;0.05;24.77;0.00;0.00;0.62;;;;;18.10;1.00;;;;;;2288625;60;1175;-84
2022/04/13 05:47:43;41138.00;0.14;71.86;0.00;0.00;0.62;;;;;17.80;1.00;;;;;;2288674;60;1300;-85
2022/04/13 05:50:10;21254.00;0.07;37.44;0.00;0.00;0.62;;;;;17.70;1.00;;;;;;2304519;40;3656;-85
2022/04/13 05:52:37;64673.00;0.22;112.55;0.00;0.00;0.62;;;;;18.60;1.00;;;;;;2288731;60;1069;-87
2022/04/13 05:55:05;305617.00;1.02;527.58;92600.00;0.31;160.80;;;;;19.30;1.00;;;;;;2288779;60;1106;-85
2022/04/13 05:57:32;23809.00;0.08;41.87;0.00;0.00;0.62;;;;;19.60;1.00;;;;;;2288638;60;1906;-87
2022/04/13 06:00:01;0.00;0.00;0.62;0.00;0.00;0.62;;;;;19.80;1.00;;;;;;2288749;60;1016;-86
2022/04/13 06:02:28;116518.00;0.39;202.08;0.00;0.00;0.62;;;;;19.80;1.00;;;;;;2288705;60;1741;-85
2022/04/13 06:04:55;147973.00;0.49;256.31;0.00;0.00;0.62;;;;;20.10;1.00;;;;;;2288742;60;1738;-87
2022/04/13 06:07:22;187042.00;0.62;323.62;0.00;0.00;0.62;;;;;20.20;1.00;;;;;;2288500;60;1131;-89
2022/04/13 06:09:49;61100.00;0.20;106.38;0.00;0.00;0.62;;;;;20.70;1.00;;;;;;2288569;60;1173;-88
2022/04/13 06:12:23;0.00;0.00;0.62;0.00;0.00;0.62;;;;;21.40;1.00;;;;;;2288684;60;1077;-87
2022/04/13 06:14:50;54557.00;0.18;95.07;0.00;0.00;0.62;;;;;21.20;1.00;;;;;;2288765;60;1078;-85
2022/04/13 06:17:18;25993.00;0.09;45.65;0.00;0.00;0.62;;;;;21.10;1.00;;;;;;2288758;60;1914;-89
2022/04/13 06:19:45;115201.00;0.38;199.80;0.00;0.00;0.62;;;;;21.30;1.00;;;;;;2288559;60;1356;-88
2022/04/13 06:22:12;117501.00;0.39;203.77;0.00;0.00;0.62;;;;;21.40;1.00;;;;;;2288767;60;949;-86
2022/04/13 06:24:39;29448.00;0.10;51.63;0.00;0.00;0.62;;;;;21.70;1.00;;;;;;2288563;60;1031;-88
2022/04/13 06:27:06;99792.00;0.33;173.21;0.00;0.00;0.62;;;;;22.00;1.00;;;;;;2288732;60;962;-87
2022/04/13 06:29:33;164686.00;0.55;285.11;0.00;0.00;0.62;;;;;21.60;1.00;;;;;;2288691;60;1533;-86
2022/04/13 06:32:00;30575.00;0.10;53.58;0.00;0.00;0.62;;;;;20.60;1.00;;;;;;2288575;60;1076;-87
2022/04/13 06:34:28;320351.00;1.07;552.90;0.00;0.00;0.62;;;;;20.20;1.00;;;;;;2288612;60;1524;-86
2022/04/13 06:36:55;183391.00;0.61;317.33;0.00;0.00;0.62;;;;;20.60;1.00;;;;;;2300561;55;3729;-86
2022/04/13 06:39:22;286551.00;0.96;494.80;17229.00;0.06;30.47;;;;;21.30;1.00;;;;;;2288513;60;1384;-84
2022/04/13 06:41:49;0.00;0.00;0.62;0.00;0.00;0.62;;;;;22.10;1.00;;;;;;2288536;60;1729;-87
2022/04/13 06:44:16;195321.00;0.65;337.87;0.00;0.00;0.62;;;;;22.70;1.00;;;;;;2288547;60;907;-87
2022/04/13 06:46:43;266538.00;0.89;460.39;0.00;0.00;0.62;;;;;22.70;1.00;;;;;;2288477;60;1078;-87
2022/04/13 06:49:10;816621.00;2.72;1410.13;62403.00;0.21;108.63;;;;;22.70;1.00;;;;;;2288462;60;1556;-87
2022/04/13 06:54:08;927130.00;3.09;1603.82;122074.00;0.41;211.66;;;;;22.00;1.00;;;;;;2290210;60;1300;-88
2022/04/13 06:56:35;118499432.00;395.00;67404400.00;84097.00;0.28;146.11;;;;;22.50;1.00;;;;;;2288485;60;1035;-87
2022/04/13 06:59:01;114738.00;0.38;199.00;0.00;0.00;0.62;;;;;22.80;1.00;;;;;;2288505;60;2047;-88
2022/04/13 07:01:28;439153.00;1.46;757.13;50539.00;0.17;88.12;;;;;23.00;1.00;;;;;;2288542;60;1043;-88
2022/04/13 07:03:55;294253.00;0.98;508.04;94524.00;0.32;164.12;;;;;23.30;1.00;;;;;;2288512;60;920;-87
2022/04/13 07:06:22;34763.00;0.12;60.83;0.00;0.00;0.62;;;;;23.90;1.00;;;;;;2288564;60;1431;-88
2022/04/13 07:08:50;0.00;0.00;0.62;0.00;0.00;0.62;;;;;23.90;1.00;;;;;;2288491;60;1274;-89
2022/04/13 07:11:19;246559.00;0.82;426.03;17182.00;0.06;30.39;;;;;23.60;1.00;;;;;;2288522;60;1322;-87
2022/04/13 07:13:46;169953.00;0.57;294.19;0.00;0.00;0.62;;;;;23.60;1.00;;;;;;2288360;60;935;-88
2022/04/13 07:16:13;164438.00;0.55;284.69;48453.00;0.16;84.51;;;;;23.40;1.00;;;;;;2288384;60;1162;-88
2022/04/13 07:18:40;136619.00;0.46;236.74;0.00;0.00;0.62;;;;;23.20;1.00;;;;;;2288385;60;1988;-89
2022/04/13 07:21:07;116882.00;0.39;202.70;0.00;0.00;0.62;;;;;23.00;1.00;;;;;;2288516;60;979;-89
2022/04/13 07:23:34;1788842.00;5.96;3199.38;160734.00;0.54;278.30;;;;;22.50;1.00;;;;;;2288550;60;1118;-89
2022/04/13 07:28:32;337889.00;1.13;583.05;83817.00;0.28;145.63;;;;;23.50;1.00;;;;;;2290375;60;1338;-87
2022/04/13 07:30:58;342825.00;1.14;591.53;82998.00;0.28;144.22;;;;;23.80;1.00;;;;;;2288515;60;1112;-89
2022/04/13 07:33:25;250588.00;0.84;432.96;76750.00;0.26;133.42;;;;;24.30;1.00;;;;;;2302221;39;3599;-87
2022/04/13 07:35:52;73347.00;0.24;127.54;0.00;0.00;0.62;;;;;24.50;1.00;;;;;;2288447;60;960;-88
2022/04/13 07:38:19;91943.00;0.31;159.66;0.00;0.00;0.62;;;;;24.80;1.00;;;;;;2288401;60;1989;-87
2022/04/13 07:40:46;137539.00;0.46;238.33;0.00;0.00;0.62;;;;;24.90;1.00;;;;;;2288253;60;985;-87
2022/04/13 07:43:14;44964.00;0.15;78.48;0.00;0.00;0.62;;;;;25.00;1.00;;;;;;2288317;60;1159;-87
2022/04/13 07:45:43;191885.00;0.64;331.95;0.00;0.00;0.62;;;;;24.90;1.00;;;;;;2288193;60;1058;-87
2022/04/13 07:48:10;39775.00;0.13;69.50;0.00;0.00;0.62;;;;;25.10;1.00;;;;;;2288348;60;1331;-88
2022/04/13 08:00:43;496959.00;1.66;856.59;0.00;0.00;0.62;;;;;25.50;1.00;;;;;;2285771;60;1418;-89
2022/04/13 08:03:10;224549.00;0.75;388.17;0.00;0.00;0.62;;;;;25.50;1.00;;;;;;2284253;60;977;-87
2022/04/13 08:05:37;33471.00;0.11;58.59;0.00;0.00;0.62;;;;;25.70;1.00;;;;;;2284304;60;1012;-88
2022/04/13 08:08:04;26784.00;0.09;47.02;0.00;0.00;0.62;;;;;25.80;1.00;;;;;;2284182;60;1729;-87
2022/04/13 08:10:31;124196.00;0.41;215.32;41847.00;0.14;73.08;;;;;26.00;1.00;;;;;;2284378;60;972;-86
2022/04/13 08:12:58;11417.00;0.04;20.40;0.00;0.00;0.62;;;;;26.00;1.00;;;;;;2284380;60;924;-87
2022/04/13 08:15:25;202556.00;0.68;350.32;29870.00;0.10;52.36;;;;;26.10;1.00;;;;;;2284129;60;1575;-88
2022/04/13 08:17:55;67844.00;0.23;118.03;0.00;0.00;0.62;;;;;25.70;1.00;;;;;;2283876;60;2005;-87
2022/04/13 08:20:22;0.00;0.00;0.62;0.00;0.00;0.62;;;;;25.90;1.00;;;;;;2284246;60;1130;-89
2022/04/13 08:22:49;2796.00;0.01;5.47;0.00;0.00;0.62;;;;;25.60;1.00;;;;;;2284242;60;1039;-87
2022/04/13 08:25:16;77103.00;0.26;134.03;0.00;0.00;0.62;;;;;26.10;1.00;;;;;;2284055;60;1004;-88
2022/04/13 08:27:44;38539.00;0.13;67.36;0.00;0.00;0.62;;;;;26.20;1.00;;;;;;2284958;60;1289;-87
2022/04/13 08:30:12;305.00;0.00;1.15;0.00;0.00;0.62;;;;;26.20;1.00;;;;;;2284975;60;1014;-87
2022/04/13 08:32:39;0.00;0.00;0.62;0.00;0.00;0.62;;;;;26.40;1.00;;;;;;2284797;60;2066;-87
2022/04/13 08:35:10;30042.00;0.10;52.66;0.00;0.00;0.62;;;;;26.00;1.00;;;;;;2284908;60;917;-88
2022/04/13 08:37:38;152782.00;0.51;264.60;0.00;0.00;0.62;;;;;25.90;1.00;;;;;;2284795;60;2013;-88
2022/04/13 08:40:06;0.00;0.00;0.62;0.00;0.00;0.62;;;;;26.20;1.00;;;;;;2284994;60;1006;-87
2022/04/13 08:57:38;394337.00;1.31;680.07;0.00;0.00;0.62;;;;;25.90;1.00;;;;;;2290836;60;1883;-88
2022/04/13 09:02:49;199988.00;0.67;345.90;0.00;0.00;0.62;;;;;26.10;1.00;;;;;;2318643;40;3632;-89
2022/04/13 09:05:18;105573.00;0.35;183.19;0.00;0.00;0.62;;;;;26.20;1.00;;;;;;2288720;60;1013;-87
2022/04/13 09:07:50;135711.00;0.45;235.18;0.00;0.00;0.62;;;;;26.00;1.00;;;;;;2288864;60;1389;-88
2022/04/13 09:10:20;16754.00;0.06;29.65;0.00;0.00;0.62;;;;;25.90;1.00;;;;;;2288805;60;1105;-88
2022/04/13 09:15:19;325006.00;1.08;560.90;0.00;0.00;0.62;;;;;24.80;1.00;;;;;;2290357;60;1196;-86
2022/04/13 09:22:44;251786.00;0.84;435.02;14608.00;0.05;25.93;;;;;24.80;1.00;;;;;;2302836;55;3694;-88
2022/04/13 09:35:24;529739.00;1.77;913.04;111151.00;0.37;192.82;;;;;24.60;1.00;;;;;;2306035;39;3416;-88
2022/04/13 09:45:18;570291.00;1.90;982.95;97932.00;0.33;170.00;;;;;23.90;1.00;;;;;;2325581;40;3537;-89
2022/04/13 09:47:47;95581.00;0.32;165.94;18650.00;0.06;32.93;;;;;24.10;1.00;;;;;;2301281;55;3766;-88
2022/04/13 10:02:46;308192.00;1.03;532.00;0.00;0.00;0.62;;;;;23.90;1.00;;;;;;2019986;40;3448;-89
2022/04/13 10:07:43;98735.00;0.33;171.39;0.00;0.00;0.62;;;;;23.90;1.00;;;;;;2324951;39;3498;-90
2022/04/13 10:10:24;172585.00;0.58;298.72;0.00;0.00;0.62;;;;;23.80;1.00;;;;;;2293313;60;1685;-91
2022/04/13 10:12:52;114366.00;0.38;198.36;48361.00;0.16;84.35;;;;;24.00;1.00;;;;;;2417549;55;3762;-85
2022/04/13 10:23:02;55447.00;0.18;96.61;0.00;0.00;0.62;;;;;23.90;1.00;;;;;;2291202;60;1434;-91
2022/04/13 10:28:00;422188.00;1.41;727.95;4707.00;0.02;8.78;;;;;24.00;1.00;;;;;;2286750;61;1352;-92
2022/04/13 10:30:29;122598.00;0.41;212.56;0.00;0.00;0.62;;;;;23.70;1.00;;;;;;2285112;61;959;-87
2022/04/13 11:25:50;1399010.00;4.66;2454.49;34979.00;0.12;61.20;;;;;24.80;1.00;;;;;;2282680;61;965;-90
2022/04/13 13:55:27;552723.00;1.84;952.65;0.00;0.00;0.62;;;;;26.10;1.00;;;;;;2278576;61;1011;-89
2022/04/13 14:35:41;930491.00;3.10;1609.74;77460.00;0.26;134.65;;;;;25.90;1.00;;;;;;2517547;39;3455;31
2022/04/13 15:05:34;985933.00;3.29;1707.57;7077.00;0.02;12.88;;;;;25.80;1.00;;;;;;2282893;61;991;-90
2022/04/13 15:25:32;460197.00;1.53;793.32;0.00;0.00;0.62;;;;;25.60;1.00;;;;;;2523809;55;3610;31
2022/04/13 16:28:11;1239441.00;4.13;2161.69;0.00;0.00;0.62;;;;;25.30;1.00;;;;;;2056722;40;3431;-89
2022/04/13 17:20:40;662797.00;2.21;1142.78;96748.00;0.32;167.96;;;;;24.90;1.00;;;;;;2286973;61;995;-91
2022/04/13 17:28:10;648621.00;2.16;1118.25;72475.00;0.24;126.04;;;;;24.70;1.00;;;;;;2287426;61;1347;-90
2022/04/13 17:30:37;367632.00;1.23;634.17;120046.00;0.40;208.16;;;;;24.50;1.00;;;;;;2285376;61;419;-90
2022/04/13 17:35:34;668145.00;2.23;1152.04;82121.00;0.27;142.70;;;;;23.90;1.00;;;;;;2287399;61;1292;-91
2022/04/13 17:38:03;386276.00;1.29;666.21;84547.00;0.28;146.89;;;;;23.90;1.00;;;;;;2284674;61;1509;-90
2022/04/13 20:12:44;415402.00;1.38;716.28;0.00;0.00;0.62;;;;;21.70;1.00;;;;;;2278395;61;1335;-89
2022/04/13 23:24:40;2654231.00;8.85;5065.64;216025.00;0.72;373.50;;;;;18.10;1.00;;;;;;2510804;55;3543;31
2022/04/13 23:54:39;731308.00;2.44;1261.57;11730.00;0.04;20.95;;;;;18.10;1.00;;;;;;2278738;61;949;-92
